sensor_id;sensor_type;location;lat;lon;timestamp;P1;durP1;ratioP1;P2;durP2;ratioP2
72920;SDS011;61064;51.654;5.476;2023-06-24T00:01:12;16.13;;;8.75;;
72920;SDS011;61064;51.654;5.476;2023-06-24T00:03:38;14.07;;;9.10;;
72920;SDS011;61064;51.654;5.476;2023-06-24T00:06:03;14.73;;;9.47;;
72920;SDS011;61064;51.654;5.476;2023-06-24T00:08:29;17.13;;;9.60;;
72920;SDS011;61064;51.654;5.476;2023-06-24T00:10:59;17.35;;;9.80;;
72920;SDS011;61064;51.654;5.476;2023-06-24T00:13:25;15.38;;;9.93;;
72920;SDS011;61064;51.654;5.476;2023-06-24T00:15:51;17.53;;;10.07;;
72920;SDS011;61064;51.654;5.476;2023-06-24T00:18:16;16.13;;;10.30;;
72920;SDS011;61064;51.654;5.476;2023-06-24T00:20:41;15.63;;;9.97;;
72920;SDS011;61064;51.654;5.476;2023-06-24T00:23:08;15.80;;;9.38;;
72920;SDS011;61064;51.654;5.476;2023-06-24T00:25:34;15.70;;;10.02;;
72920;SDS011;61064;51.654;5.476;2023-06-24T00:27:59;15.00;;;9.60;;
72920;SDS011;61064;51.654;5.476;2023-06-24T00:30:26;17.38;;;9.77;;
72920;SDS011;61064;51.654;5.476;2023-06-24T00:32:52;16.17;;;9.85;;
72920;SDS011;61064;51.654;5.476;2023-06-24T00:35:17;15.60;;;9.97;;
72920;SDS011;61064;51.654;5.476;2023-06-24T00:37:43;15.03;;;9.53;;
72920;SDS011;61064;51.654;5.476;2023-06-24T00:40:10;13.85;;;8.98;;
72920;SDS011;61064;51.654;5.476;2023-06-24T00:42:36;13.95;;;8.93;;
72920;SDS011;61064;51.654;5.476;2023-06-24T00:45:02;14.15;;;8.63;;
72920;SDS011;61064;51.654;5.476;2023-06-24T00:47:30;13.02;;;7.85;;
72920;SDS011;61064;51.654;5.476;2023-06-24T00:49:56;15.03;;;8.27;;
72920;SDS011;61064;51.654;5.476;2023-06-24T00:52:22;13.85;;;8.18;;
72920;SDS011;61064;51.654;5.476;2023-06-24T00:54:48;13.55;;;8.00;;
72920;SDS011;61064;51.654;5.476;2023-06-24T00:57:14;14.53;;;7.80;;
72920;SDS011;61064;51.654;5.476;2023-06-24T00:59:42;13.75;;;7.70;;
72920;SDS011;61064;51.654;5.476;2023-06-24T01:02:09;12.85;;;7.50;;
72920;SDS011;61064;51.654;5.476;2023-06-24T01:04:35;11.77;;;7.30;;
72920;SDS011;61064;51.654;5.476;2023-06-24T01:07:01;13.40;;;7.60;;
72920;SDS011;61064;51.654;5.476;2023-06-24T01:09:27;13.52;;;7.78;;
72920;SDS011;61064;51.654;5.476;2023-06-24T01:11:52;13.27;;;7.70;;
72920;SDS011;61064;51.654;5.476;2023-06-24T01:14:18;12.20;;;7.33;;
72920;SDS011;61064;51.654;5.476;2023-06-24T01:16:56;14.25;;;7.35;;
72920;SDS011;61064;51.654;5.476;2023-06-24T01:22:31;14.15;;;7.57;;
72920;SDS011;61064;51.654;5.476;2023-06-24T01:30:49;13.02;;;7.45;;
72920;SDS011;61064;51.654;5.476;2023-06-24T01:33:26;14.30;;;7.60;;
72920;SDS011;61064;51.654;5.476;2023-06-24T01:36:14;12.93;;;7.40;;
72920;SDS011;61064;51.654;5.476;2023-06-24T01:38:43;12.82;;;7.57;;
72920;SDS011;61064;51.654;5.476;2023-06-24T01:41:13;13.33;;;7.20;;
72920;SDS011;61064;51.654;5.476;2023-06-24T01:43:43;13.20;;;6.63;;
72920;SDS011;61064;51.654;5.476;2023-06-24T01:46:10;12.07;;;7.00;;
72920;SDS011;61064;51.654;5.476;2023-06-24T01:48:39;12.75;;;7.20;;
72920;SDS011;61064;51.654;5.476;2023-06-24T01:51:10;12.20;;;6.65;;
72920;SDS011;61064;51.654;5.476;2023-06-24T01:53:40;12.10;;;6.50;;
72920;SDS011;61064;51.654;5.476;2023-06-24T01:56:11;13.35;;;7.28;;
72920;SDS011;61064;51.654;5.476;2023-06-24T01:58:39;14.27;;;7.53;;
72920;SDS011;61064;51.654;5.476;2023-06-24T02:01:06;14.00;;;7.45;;
72920;SDS011;61064;51.654;5.476;2023-06-24T02:03:32;13.25;;;7.30;;
72920;SDS011;61064;51.654;5.476;2023-06-24T02:05:59;12.80;;;6.57;;
72920;SDS011;61064;51.654;5.476;2023-06-24T02:08:29;14.32;;;7.28;;
72920;SDS011;61064;51.654;5.476;2023-06-24T02:10:56;13.85;;;7.53;;
72920;SDS011;61064;51.654;5.476;2023-06-24T02:13:24;11.63;;;6.45;;
72920;SDS011;61064;51.654;5.476;2023-06-24T02:15:50;12.13;;;6.88;;
72920;SDS011;61064;51.654;5.476;2023-06-24T02:18:18;12.60;;;6.83;;
72920;SDS011;61064;51.654;5.476;2023-06-24T02:20:45;12.68;;;7.10;;
72920;SDS011;61064;51.654;5.476;2023-06-24T02:23:13;14.43;;;7.53;;
72920;SDS011;61064;51.654;5.476;2023-06-24T02:25:41;12.25;;;6.97;;
72920;SDS011;61064;51.654;5.476;2023-06-24T02:28:08;11.73;;;6.20;;
72920;SDS011;61064;51.654;5.476;2023-06-24T02:30:34;13.68;;;6.70;;
72920;SDS011;61064;51.654;5.476;2023-06-24T02:33:01;11.82;;;6.80;;
72920;SDS011;61064;51.654;5.476;2023-06-24T02:35:27;13.02;;;6.88;;
72920;SDS011;61064;51.654;5.476;2023-06-24T02:37:56;11.50;;;6.60;;
72920;SDS011;61064;51.654;5.476;2023-06-24T02:40:21;13.48;;;6.80;;
72920;SDS011;61064;51.654;5.476;2023-06-24T02:42:47;12.37;;;6.47;;
72920;SDS011;61064;51.654;5.476;2023-06-24T02:45:12;12.07;;;7.30;;
72920;SDS011;61064;51.654;5.476;2023-06-24T02:47:40;12.73;;;7.43;;
72920;SDS011;61064;51.654;5.476;2023-06-24T02:50:10;14.00;;;7.25;;
72920;SDS011;61064;51.654;5.476;2023-06-24T02:52:36;11.55;;;6.63;;
72920;SDS011;61064;51.654;5.476;2023-06-24T02:55:04;11.47;;;6.33;;
72920;SDS011;61064;51.654;5.476;2023-06-24T02:57:30;14.35;;;5.47;;
72920;SDS011;61064;51.654;5.476;2023-06-24T02:59:57;12.02;;;5.30;;
72920;SDS011;61064;51.654;5.476;2023-06-24T03:02:23;11.10;;;5.27;;
72920;SDS011;61064;51.654;5.476;2023-06-24T03:04:50;9.55;;;4.75;;
72920;SDS011;61064;51.654;5.476;2023-06-24T03:07:16;9.38;;;4.50;;
72920;SDS011;61064;51.654;5.476;2023-06-24T03:09:45;9.70;;;4.70;;
72920;SDS011;61064;51.654;5.476;2023-06-24T03:12:11;11.00;;;3.85;;
72920;SDS011;61064;51.654;5.476;2023-06-24T03:14:36;10.47;;;4.00;;
72920;SDS011;61064;51.654;5.476;2023-06-24T03:17:01;9.03;;;4.23;;
72920;SDS011;61064;51.654;5.476;2023-06-24T03:19:27;9.23;;;4.00;;
72920;SDS011;61064;51.654;5.476;2023-06-24T03:21:52;8.40;;;4.00;;
72920;SDS011;61064;51.654;5.476;2023-06-24T03:24:18;7.82;;;3.53;;
72920;SDS011;61064;51.654;5.476;2023-06-24T03:26:43;7.63;;;3.13;;
72920;SDS011;61064;51.654;5.476;2023-06-24T03:29:08;8.37;;;3.00;;
72920;SDS011;61064;51.654;5.476;2023-06-24T03:31:34;7.83;;;3.00;;
72920;SDS011;61064;51.654;5.476;2023-06-24T03:33:59;8.88;;;3.10;;
72920;SDS011;61064;51.654;5.476;2023-06-24T03:36:25;7.43;;;2.80;;
72920;SDS011;61064;51.654;5.476;2023-06-24T03:38:50;7.23;;;2.93;;
72920;SDS011;61064;51.654;5.476;2023-06-24T03:41:16;7.93;;;3.05;;
72920;SDS011;61064;51.654;5.476;2023-06-24T03:43:42;10.07;;;2.83;;
72920;SDS011;61064;51.654;5.476;2023-06-24T03:46:07;8.83;;;3.13;;
72920;SDS011;61064;51.654;5.476;2023-06-24T03:48:33;10.13;;;3.60;;
72920;SDS011;61064;51.654;5.476;2023-06-24T03:50:59;6.73;;;3.07;;
72920;SDS011;61064;51.654;5.476;2023-06-24T03:53:25;7.70;;;3.03;;
72920;SDS011;61064;51.654;5.476;2023-06-24T03:55:50;7.50;;;2.90;;
72920;SDS011;61064;51.654;5.476;2023-06-24T03:58:15;11.07;;;3.13;;
72920;SDS011;61064;51.654;5.476;2023-06-24T04:00:42;7.13;;;3.10;;
72920;SDS011;61064;51.654;5.476;2023-06-24T04:03:08;7.37;;;3.00;;
72920;SDS011;61064;51.654;5.476;2023-06-24T04:05:34;9.27;;;3.42;;
72920;SDS011;61064;51.654;5.476;2023-06-24T04:07:59;9.63;;;3.27;;
72920;SDS011;61064;51.654;5.476;2023-06-24T04:10:25;9.47;;;3.10;;
72920;SDS011;61064;51.654;5.476;2023-06-24T04:12:51;9.63;;;3.42;;
72920;SDS011;61064;51.654;5.476;2023-06-24T04:15:16;7.17;;;3.03;;
72920;SDS011;61064;51.654;5.476;2023-06-24T04:17:42;9.03;;;3.20;;
72920;SDS011;61064;51.654;5.476;2023-06-24T04:20:07;9.27;;;3.53;;
72920;SDS011;61064;51.654;5.476;2023-06-24T04:22:34;7.47;;;3.33;;
72920;SDS011;61064;51.654;5.476;2023-06-24T04:25:00;9.23;;;3.63;;
72920;SDS011;61064;51.654;5.476;2023-06-24T04:27:25;7.63;;;3.37;;
72920;SDS011;61064;51.654;5.476;2023-06-24T04:29:50;8.38;;;3.25;;
72920;SDS011;61064;51.654;5.476;2023-06-24T04:32:16;8.10;;;3.70;;
72920;SDS011;61064;51.654;5.476;2023-06-24T04:34:41;11.73;;;4.10;;
72920;SDS011;61064;51.654;5.476;2023-06-24T04:37:07;9.87;;;4.27;;
72920;SDS011;61064;51.654;5.476;2023-06-24T04:39:32;12.20;;;5.30;;
72920;SDS011;61064;51.654;5.476;2023-06-24T04:41:58;11.73;;;5.10;;
72920;SDS011;61064;51.654;5.476;2023-06-24T04:44:23;10.80;;;5.03;;
72920;SDS011;61064;51.654;5.476;2023-06-24T04:46:48;13.10;;;5.30;;
72920;SDS011;61064;51.654;5.476;2023-06-24T04:49:14;10.27;;;5.20;;
72920;SDS011;61064;51.654;5.476;2023-06-24T04:51:40;12.17;;;5.30;;
72920;SDS011;61064;51.654;5.476;2023-06-24T04:54:05;10.77;;;5.03;;
72920;SDS011;61064;51.654;5.476;2023-06-24T04:56:32;12.55;;;5.45;;
72920;SDS011;61064;51.654;5.476;2023-06-24T04:58:59;11.80;;;5.20;;
72920;SDS011;61064;51.654;5.476;2023-06-24T05:01:25;11.67;;;5.73;;
72920;SDS011;61064;51.654;5.476;2023-06-24T05:03:50;11.75;;;5.93;;
72920;SDS011;61064;51.654;5.476;2023-06-24T05:06:15;11.70;;;5.90;;
72920;SDS011;61064;51.654;5.476;2023-06-24T05:08:41;12.37;;;5.67;;
72920;SDS011;61064;51.654;5.476;2023-06-24T05:11:06;13.33;;;6.37;;
72920;SDS011;61064;51.654;5.476;2023-06-24T05:13:32;14.23;;;6.50;;
72920;SDS011;61064;51.654;5.476;2023-06-24T05:15:57;12.70;;;6.47;;
72920;SDS011;61064;51.654;5.476;2023-06-24T05:18:23;12.33;;;6.90;;
72920;SDS011;61064;51.654;5.476;2023-06-24T05:20:48;14.27;;;6.67;;
72920;SDS011;61064;51.654;5.476;2023-06-24T05:23:13;13.63;;;6.87;;
72920;SDS011;61064;51.654;5.476;2023-06-24T05:25:39;15.43;;;7.20;;
72920;SDS011;61064;51.654;5.476;2023-06-24T05:28:04;14.88;;;6.88;;
72920;SDS011;61064;51.654;5.476;2023-06-24T05:30:29;13.37;;;7.03;;
72920;SDS011;61064;51.654;5.476;2023-06-24T05:32:55;14.73;;;7.57;;
72920;SDS011;61064;51.654;5.476;2023-06-24T05:35:20;15.57;;;7.77;;
72920;SDS011;61064;51.654;5.476;2023-06-24T05:37:46;14.53;;;7.90;;
72920;SDS011;61064;51.654;5.476;2023-06-24T05:40:11;15.67;;;7.70;;
72920;SDS011;61064;51.654;5.476;2023-06-24T05:42:37;16.10;;;8.13;;
72920;SDS011;61064;51.654;5.476;2023-06-24T05:45:03;17.85;;;7.88;;
72920;SDS011;61064;51.654;5.476;2023-06-24T05:47:29;16.20;;;7.35;;
72920;SDS011;61064;51.654;5.476;2023-06-24T05:49:54;16.10;;;8.50;;
72920;SDS011;61064;51.654;5.476;2023-06-24T05:52:20;14.43;;;7.80;;
72920;SDS011;61064;51.654;5.476;2023-06-24T05:54:45;14.07;;;7.73;;
72920;SDS011;61064;51.654;5.476;2023-06-24T05:57:10;15.83;;;8.53;;
72920;SDS011;61064;51.654;5.476;2023-06-24T05:59:36;15.38;;;8.25;;
72920;SDS011;61064;51.654;5.476;2023-06-24T06:02:01;17.70;;;8.63;;
72920;SDS011;61064;51.654;5.476;2023-06-24T06:04:27;15.83;;;8.73;;
72920;SDS011;61064;51.654;5.476;2023-06-24T06:06:53;16.60;;;8.93;;
72920;SDS011;61064;51.654;5.476;2023-06-24T06:09:19;15.00;;;8.33;;
72920;SDS011;61064;51.654;5.476;2023-06-24T06:11:45;15.00;;;8.57;;
72920;SDS011;61064;51.654;5.476;2023-06-24T06:14:10;16.37;;;8.63;;
72920;SDS011;61064;51.654;5.476;2023-06-24T06:16:35;16.70;;;8.43;;
72920;SDS011;61064;51.654;5.476;2023-06-24T06:19:01;14.80;;;8.10;;
72920;SDS011;61064;51.654;5.476;2023-06-24T06:21:26;17.73;;;8.47;;
72920;SDS011;61064;51.654;5.476;2023-06-24T06:23:52;15.23;;;8.13;;
72920;SDS011;61064;51.654;5.476;2023-06-24T06:26:17;16.57;;;8.40;;
72920;SDS011;61064;51.654;5.476;2023-06-24T06:28:43;16.92;;;8.73;;
72920;SDS011;61064;51.654;5.476;2023-06-24T06:31:08;14.47;;;8.70;;
72920;SDS011;61064;51.654;5.476;2023-06-24T06:33:33;16.37;;;8.50;;
72920;SDS011;61064;51.654;5.476;2023-06-24T06:35:59;16.10;;;8.60;;
72920;SDS011;61064;51.654;5.476;2023-06-24T06:38:24;17.37;;;9.30;;
72920;SDS011;61064;51.654;5.476;2023-06-24T06:40:51;15.20;;;7.95;;
72920;SDS011;61064;51.654;5.476;2023-06-24T06:43:16;13.98;;;7.85;;
72920;SDS011;61064;51.654;5.476;2023-06-24T06:45:43;16.67;;;7.47;;
72920;SDS011;61064;51.654;5.476;2023-06-24T06:48:08;12.13;;;6.88;;
72920;SDS011;61064;51.654;5.476;2023-06-24T06:50:34;14.13;;;6.67;;
72920;SDS011;61064;51.654;5.476;2023-06-24T06:53:00;14.95;;;6.97;;
72920;SDS011;61064;51.654;5.476;2023-06-24T06:55:26;14.03;;;7.27;;
72920;SDS011;61064;51.654;5.476;2023-06-24T06:57:52;13.02;;;7.05;;
72920;SDS011;61064;51.654;5.476;2023-06-24T07:00:18;14.10;;;6.37;;
72920;SDS011;61064;51.654;5.476;2023-06-24T07:02:43;13.77;;;6.68;;
72920;SDS011;61064;51.654;5.476;2023-06-24T07:05:09;14.30;;;6.50;;
72920;SDS011;61064;51.654;5.476;2023-06-24T07:07:36;12.18;;;6.85;;
72920;SDS011;61064;51.654;5.476;2023-06-24T07:10:02;12.13;;;6.57;;
72920;SDS011;61064;51.654;5.476;2023-06-24T07:12:27;13.03;;;6.87;;
72920;SDS011;61064;51.654;5.476;2023-06-24T07:14:53;11.43;;;6.23;;
72920;SDS011;61064;51.654;5.476;2023-06-24T07:17:18;11.20;;;5.90;;
72920;SDS011;61064;51.654;5.476;2023-06-24T07:19:43;12.57;;;6.60;;
72920;SDS011;61064;51.654;5.476;2023-06-24T07:22:09;12.40;;;6.97;;
72920;SDS011;61064;51.654;5.476;2023-06-24T07:24:34;14.25;;;7.05;;
72920;SDS011;61064;51.654;5.476;2023-06-24T07:26:59;13.10;;;6.03;;
72920;SDS011;61064;51.654;5.476;2023-06-24T07:29:25;12.67;;;6.40;;
72920;SDS011;61064;51.654;5.476;2023-06-24T07:31:50;12.07;;;5.67;;
72920;SDS011;61064;51.654;5.476;2023-06-24T07:34:16;11.77;;;5.80;;
72920;SDS011;61064;51.654;5.476;2023-06-24T07:36:41;13.10;;;5.85;;
72920;SDS011;61064;51.654;5.476;2023-06-24T07:39:06;10.70;;;5.70;;
72920;SDS011;61064;51.654;5.476;2023-06-24T07:41:32;12.23;;;5.67;;
72920;SDS011;61064;51.654;5.476;2023-06-24T07:43:57;11.10;;;5.20;;
72920;SDS011;61064;51.654;5.476;2023-06-24T07:46:23;10.93;;;5.17;;
72920;SDS011;61064;51.654;5.476;2023-06-24T07:48:48;9.25;;;4.32;;
72920;SDS011;61064;51.654;5.476;2023-06-24T07:51:14;11.50;;;4.33;;
72920;SDS011;61064;51.654;5.476;2023-06-24T07:53:39;10.67;;;5.20;;
72920;SDS011;61064;51.654;5.476;2023-06-24T07:56:04;12.57;;;4.87;;
72920;SDS011;61064;51.654;5.476;2023-06-24T07:58:30;10.20;;;5.00;;
72920;SDS011;61064;51.654;5.476;2023-06-24T08:00:55;9.43;;;5.17;;
72920;SDS011;61064;51.654;5.476;2023-06-24T08:03:21;9.77;;;4.70;;
72920;SDS011;61064;51.654;5.476;2023-06-24T08:05:47;9.85;;;4.07;;
72920;SDS011;61064;51.654;5.476;2023-06-24T08:08:14;9.95;;;4.82;;
72920;SDS011;61064;51.654;5.476;2023-06-24T08:10:40;10.87;;;4.07;;
72920;SDS011;61064;51.654;5.476;2023-06-24T08:13:05;9.03;;;4.40;;
72920;SDS011;61064;51.654;5.476;2023-06-24T08:15:30;8.00;;;4.00;;
72920;SDS011;61064;51.654;5.476;2023-06-24T08:17:56;11.25;;;4.38;;
72920;SDS011;61064;51.654;5.476;2023-06-24T08:20:21;8.77;;;3.90;;
72920;SDS011;61064;51.654;5.476;2023-06-24T08:22:47;9.30;;;4.20;;
72920;SDS011;61064;51.654;5.476;2023-06-24T08:25:13;8.60;;;4.50;;
72920;SDS011;61064;51.654;5.476;2023-06-24T08:27:38;9.77;;;4.37;;
72920;SDS011;61064;51.654;5.476;2023-06-24T08:30:04;8.63;;;4.10;;
72920;SDS011;61064;51.654;5.476;2023-06-24T08:32:31;9.43;;;3.90;;
72920;SDS011;61064;51.654;5.476;2023-06-24T08:34:56;8.50;;;3.80;;
72920;SDS011;61064;51.654;5.476;2023-06-24T08:37:22;7.95;;;3.63;;
72920;SDS011;61064;51.654;5.476;2023-06-24T08:39:47;8.57;;;3.43;;
72920;SDS011;61064;51.654;5.476;2023-06-24T08:42:13;8.23;;;3.30;;
72920;SDS011;61064;51.654;5.476;2023-06-24T08:44:38;8.60;;;3.47;;
72920;SDS011;61064;51.654;5.476;2023-06-24T08:47:03;7.60;;;3.25;;
72920;SDS011;61064;51.654;5.476;2023-06-24T08:49:29;7.80;;;3.30;;
72920;SDS011;61064;51.654;5.476;2023-06-24T08:54:33;7.68;;;3.40;;
72920;SDS011;61064;51.654;5.476;2023-06-24T08:57:01;8.27;;;3.58;;
72920;SDS011;61064;51.654;5.476;2023-06-24T08:59:30;8.03;;;3.50;;
72920;SDS011;61064;51.654;5.476;2023-06-24T09:01:59;7.63;;;3.20;;
72920;SDS011;61064;51.654;5.476;2023-06-24T09:04:24;6.97;;;3.00;;
72920;SDS011;61064;51.654;5.476;2023-06-24T09:06:50;8.00;;;2.90;;
72920;SDS011;61064;51.654;5.476;2023-06-24T09:09:21;7.18;;;2.50;;
72920;SDS011;61064;51.654;5.476;2023-06-24T09:11:54;6.80;;;2.50;;
72920;SDS011;61064;51.654;5.476;2023-06-24T09:14:21;7.43;;;2.53;;
72920;SDS011;61064;51.654;5.476;2023-06-24T09:16:53;6.57;;;2.70;;
72920;SDS011;61064;51.654;5.476;2023-06-24T09:19:22;7.05;;;2.70;;
72920;SDS011;61064;51.654;5.476;2023-06-24T09:22:01;7.28;;;2.65;;
72920;SDS011;61064;51.654;5.476;2023-06-24T09:24:32;6.90;;;2.33;;
72920;SDS011;61064;51.654;5.476;2023-06-24T09:27:01;7.05;;;2.20;;
72920;SDS011;61064;51.654;5.476;2023-06-24T09:29:27;6.95;;;2.30;;
72920;SDS011;61064;51.654;5.476;2023-06-24T09:31:56;6.47;;;2.10;;
72920;SDS011;61064;51.654;5.476;2023-06-24T09:34:23;7.37;;;2.20;;
72920;SDS011;61064;51.654;5.476;2023-06-24T09:36:53;6.57;;;2.40;;
72920;SDS011;61064;51.654;5.476;2023-06-24T09:39:22;7.50;;;1.80;;
72920;SDS011;61064;51.654;5.476;2023-06-24T09:41:59;4.53;;;1.60;;
72920;SDS011;61064;51.654;5.476;2023-06-24T09:44:26;6.65;;;2.17;;
72920;SDS011;61064;51.654;5.476;2023-06-24T09:46:52;6.07;;;2.20;;
72920;SDS011;61064;51.654;5.476;2023-06-24T09:49:18;5.72;;;1.80;;
72920;SDS011;61064;51.654;5.476;2023-06-24T09:51:45;6.50;;;2.23;;
72920;SDS011;61064;51.654;5.476;2023-06-24T09:54:12;6.95;;;2.33;;
72920;SDS011;61064;51.654;5.476;2023-06-24T09:56:40;6.45;;;2.60;;
72920;SDS011;61064;51.654;5.476;2023-06-24T09:59:12;7.90;;;2.45;;
72920;SDS011;61064;51.654;5.476;2023-06-24T10:01:38;5.77;;;2.27;;
72920;SDS011;61064;51.654;5.476;2023-06-24T10:04:07;6.82;;;2.85;;
72920;SDS011;61064;51.654;5.476;2023-06-24T10:06:33;6.03;;;2.70;;
72920;SDS011;61064;51.654;5.476;2023-06-24T10:08:59;6.20;;;2.50;;
72920;SDS011;61064;51.654;5.476;2023-06-24T10:11:26;5.57;;;2.23;;
72920;SDS011;61064;51.654;5.476;2023-06-24T10:13:52;6.10;;;2.30;;
72920;SDS011;61064;51.654;5.476;2023-06-24T10:16:18;7.30;;;2.45;;
72920;SDS011;61064;51.654;5.476;2023-06-24T10:18:44;7.00;;;2.60;;
72920;SDS011;61064;51.654;5.476;2023-06-24T10:21:10;6.20;;;2.40;;
72920;SDS011;61064;51.654;5.476;2023-06-24T10:26:27;7.57;;;2.30;;
72920;SDS011;61064;51.654;5.476;2023-06-24T10:36:55;6.10;;;2.50;;
72920;SDS011;61064;51.654;5.476;2023-06-24T10:39:36;6.10;;;2.60;;
72920;SDS011;61064;51.654;5.476;2023-06-24T10:42:26;8.30;;;3.10;;
72920;SDS011;61064;51.654;5.476;2023-06-24T10:45:22;7.33;;;3.23;;
72920;SDS011;61064;51.654;5.476;2023-06-24T10:47:48;6.47;;;3.05;;
72920;SDS011;61064;51.654;5.476;2023-06-24T10:50:17;7.25;;;3.00;;
72920;SDS011;61064;51.654;5.476;2023-06-24T10:52:45;7.55;;;3.25;;
72920;SDS011;61064;51.654;5.476;2023-06-24T10:55:15;7.95;;;3.58;;
72920;SDS011;61064;51.654;5.476;2023-06-24T10:57:42;7.73;;;3.17;;
72920;SDS011;61064;51.654;5.476;2023-06-24T11:00:08;9.52;;;2.95;;
72920;SDS011;61064;51.654;5.476;2023-06-24T11:02:34;8.18;;;3.30;;
72920;SDS011;61064;51.654;5.476;2023-06-24T11:05:02;8.57;;;3.00;;
72920;SDS011;61064;51.654;5.476;2023-06-24T11:07:29;7.97;;;3.30;;
72920;SDS011;61064;51.654;5.476;2023-06-24T11:10:06;8.77;;;3.38;;
72920;SDS011;61064;51.654;5.476;2023-06-24T11:12:35;7.35;;;3.30;;
72920;SDS011;61064;51.654;5.476;2023-06-24T11:15:09;7.05;;;3.25;;
72920;SDS011;61064;51.654;5.476;2023-06-24T11:17:36;7.18;;;3.38;;
72920;SDS011;61064;51.654;5.476;2023-06-24T11:20:12;7.47;;;3.03;;
72920;SDS011;61064;51.654;5.476;2023-06-24T11:22:41;9.13;;;3.50;;
72920;SDS011;61064;51.654;5.476;2023-06-24T11:25:15;7.32;;;3.33;;
72920;SDS011;61064;51.654;5.476;2023-06-24T11:27:44;7.68;;;3.63;;
72920;SDS011;61064;51.654;5.476;2023-06-24T11:30:10;8.53;;;3.30;;
72920;SDS011;61064;51.654;5.476;2023-06-24T11:32:37;8.13;;;3.30;;
72920;SDS011;61064;51.654;5.476;2023-06-24T11:35:10;6.70;;;3.25;;
72920;SDS011;61064;51.654;5.476;2023-06-24T11:37:36;6.93;;;3.03;;
72920;SDS011;61064;51.654;5.476;2023-06-24T11:42:32;7.22;;;2.97;;
72920;SDS011;61064;51.654;5.476;2023-06-24T11:45:04;7.78;;;3.45;;
72920;SDS011;61064;51.654;5.476;2023-06-24T11:47:31;6.60;;;2.90;;
72920;SDS011;61064;51.654;5.476;2023-06-24T11:49:58;9.18;;;3.47;;
72920;SDS011;61064;51.654;5.476;2023-06-24T11:55:04;7.05;;;3.33;;
72920;SDS011;61064;51.654;5.476;2023-06-24T12:03:01;8.05;;;3.05;;
72920;SDS011;61064;51.654;5.476;2023-06-24T12:05:31;7.85;;;3.20;;
72920;SDS011;61064;51.654;5.476;2023-06-24T12:07:59;7.13;;;3.38;;
72920;SDS011;61064;51.654;5.476;2023-06-24T12:10:29;6.90;;;3.33;;
72920;SDS011;61064;51.654;5.476;2023-06-24T12:12:58;7.07;;;3.10;;
72920;SDS011;61064;51.654;5.476;2023-06-24T12:15:25;7.07;;;3.20;;
72920;SDS011;61064;51.654;5.476;2023-06-24T12:17:50;7.25;;;3.28;;
72920;SDS011;61064;51.654;5.476;2023-06-24T12:20:16;6.47;;;2.80;;
72920;SDS011;61064;51.654;5.476;2023-06-24T12:22:42;9.13;;;3.35;;
72920;SDS011;61064;51.654;5.476;2023-06-24T12:25:08;8.10;;;3.47;;
72920;SDS011;61064;51.654;5.476;2023-06-24T12:27:34;7.70;;;3.28;;
72920;SDS011;61064;51.654;5.476;2023-06-24T12:29:59;7.43;;;2.90;;
72920;SDS011;61064;51.654;5.476;2023-06-24T12:32:25;6.68;;;3.05;;
72920;SDS011;61064;51.654;5.476;2023-06-24T12:34:51;7.23;;;3.40;;
72920;SDS011;61064;51.654;5.476;2023-06-24T12:37:16;7.40;;;3.40;;
72920;SDS011;61064;51.654;5.476;2023-06-24T12:39:43;7.03;;;3.50;;
72920;SDS011;61064;51.654;5.476;2023-06-24T12:42:09;9.07;;;3.40;;
72920;SDS011;61064;51.654;5.476;2023-06-24T12:44:35;6.95;;;3.45;;
72920;SDS011;61064;51.654;5.476;2023-06-24T12:47:00;6.10;;;3.10;;
72920;SDS011;61064;51.654;5.476;2023-06-24T12:49:25;6.67;;;3.10;;
72920;SDS011;61064;51.654;5.476;2023-06-24T12:51:51;8.57;;;3.30;;
72920;SDS011;61064;51.654;5.476;2023-06-24T12:54:17;6.83;;;3.30;;
72920;SDS011;61064;51.654;5.476;2023-06-24T12:56:42;7.15;;;3.30;;
72920;SDS011;61064;51.654;5.476;2023-06-24T12:59:08;7.33;;;3.70;;
72920;SDS011;61064;51.654;5.476;2023-06-24T13:01:33;7.23;;;3.30;;
72920;SDS011;61064;51.654;5.476;2023-06-24T13:03:59;7.87;;;3.77;;
72920;SDS011;61064;51.654;5.476;2023-06-24T13:06:24;6.55;;;3.00;;
72920;SDS011;61064;51.654;5.476;2023-06-24T13:08:50;8.23;;;3.80;;
72920;SDS011;61064;51.654;5.476;2023-06-24T13:11:15;9.80;;;3.33;;
72920;SDS011;61064;51.654;5.476;2023-06-24T13:13:40;6.57;;;3.30;;
72920;SDS011;61064;51.654;5.476;2023-06-24T13:16:06;7.32;;;3.25;;
72920;SDS011;61064;51.654;5.476;2023-06-24T13:18:31;7.47;;;3.13;;
72920;SDS011;61064;51.654;5.476;2023-06-24T13:20:57;6.50;;;3.23;;
72920;SDS011;61064;51.654;5.476;2023-06-24T13:23:22;7.17;;;3.30;;
72920;SDS011;61064;51.654;5.476;2023-06-24T13:25:47;7.47;;;3.40;;
72920;SDS011;61064;51.654;5.476;2023-06-24T13:28:13;7.80;;;3.07;;
72920;SDS011;61064;51.654;5.476;2023-06-24T13:30:38;7.70;;;3.20;;
72920;SDS011;61064;51.654;5.476;2023-06-24T13:33:03;6.37;;;2.90;;
72920;SDS011;61064;51.654;5.476;2023-06-24T13:35:29;7.70;;;3.33;;
72920;SDS011;61064;51.654;5.476;2023-06-24T13:37:57;7.63;;;3.27;;
72920;SDS011;61064;51.654;5.476;2023-06-24T13:40:23;8.50;;;3.55;;
72920;SDS011;61064;51.654;5.476;2023-06-24T13:42:49;7.60;;;3.50;;
72920;SDS011;61064;51.654;5.476;2023-06-24T13:45:15;8.23;;;3.30;;
72920;SDS011;61064;51.654;5.476;2023-06-24T13:47:40;8.10;;;3.50;;
72920;SDS011;61064;51.654;5.476;2023-06-24T13:50:09;8.95;;;3.20;;
72920;SDS011;61064;51.654;5.476;2023-06-24T13:52:35;6.70;;;3.30;;
72920;SDS011;61064;51.654;5.476;2023-06-24T13:55:00;7.53;;;3.30;;
72920;SDS011;61064;51.654;5.476;2023-06-24T13:57:26;7.40;;;3.20;;
72920;SDS011;61064;51.654;5.476;2023-06-24T13:59:52;7.60;;;3.80;;
72920;SDS011;61064;51.654;5.476;2023-06-24T14:02:18;7.10;;;3.37;;
72920;SDS011;61064;51.654;5.476;2023-06-24T14:04:44;9.93;;;3.53;;
72920;SDS011;61064;51.654;5.476;2023-06-24T14:07:10;7.03;;;3.23;;
72920;SDS011;61064;51.654;5.476;2023-06-24T14:09:36;7.80;;;3.40;;
72920;SDS011;61064;51.654;5.476;2023-06-24T14:12:03;6.88;;;3.00;;
72920;SDS011;61064;51.654;5.476;2023-06-24T14:14:29;6.33;;;3.20;;
72920;SDS011;61064;51.654;5.476;2023-06-24T14:16:54;7.53;;;3.40;;
72920;SDS011;61064;51.654;5.476;2023-06-24T14:19:20;6.70;;;3.22;;
72920;SDS011;61064;51.654;5.476;2023-06-24T14:21:47;6.57;;;3.00;;
72920;SDS011;61064;51.654;5.476;2023-06-24T14:24:14;7.10;;;3.20;;
72920;SDS011;61064;51.654;5.476;2023-06-24T14:26:40;8.17;;;3.67;;
72920;SDS011;61064;51.654;5.476;2023-06-24T14:29:08;8.13;;;3.42;;
72920;SDS011;61064;51.654;5.476;2023-06-24T14:31:33;8.57;;;3.03;;
72920;SDS011;61064;51.654;5.476;2023-06-24T14:33:59;6.53;;;3.13;;
72920;SDS011;61064;51.654;5.476;2023-06-24T14:36:24;7.43;;;3.70;;
72920;SDS011;61064;51.654;5.476;2023-06-24T14:38:51;6.70;;;3.13;;
72920;SDS011;61064;51.654;5.476;2023-06-24T14:41:16;7.50;;;3.50;;
72920;SDS011;61064;51.654;5.476;2023-06-24T14:43:42;7.47;;;3.67;;
72920;SDS011;61064;51.654;5.476;2023-06-24T14:46:07;8.73;;;3.80;;
72920;SDS011;61064;51.654;5.476;2023-06-24T14:48:32;8.43;;;3.60;;
72920;SDS011;61064;51.654;5.476;2023-06-24T14:50:58;9.25;;;3.28;;
72920;SDS011;61064;51.654;5.476;2023-06-24T14:53:23;7.07;;;3.50;;
72920;SDS011;61064;51.654;5.476;2023-06-24T14:55:50;7.37;;;3.30;;
72920;SDS011;61064;51.654;5.476;2023-06-24T14:58:16;6.65;;;3.42;;
72920;SDS011;61064;51.654;5.476;2023-06-24T15:00:42;7.68;;;3.17;;
72920;SDS011;61064;51.654;5.476;2023-06-24T15:03:07;8.30;;;3.70;;
72920;SDS011;61064;51.654;5.476;2023-06-24T15:05:33;7.20;;;3.50;;
72920;SDS011;61064;51.654;5.476;2023-06-24T15:07:59;8.13;;;3.60;;
72920;SDS011;61064;51.654;5.476;2023-06-24T15:10:25;7.57;;;3.50;;